Time;durP1;ratioP1;P1;durP2;ratioP2;P2;SDS_P1;SDS_P2;PMS_P1;PMS_P2;Temp;Humidity;BMP_temperature;BMP_pressure;BME280_temperature;BME280_humidity;BME280_pressure;Samples;Min_cycle;Max_cycle;Signal;HPM_P1;HPM_P2
2021/11/07 00:01:12;;;;;;;25.12;13.70;;;;;;;6.12;63.33;101132.98;1767478;79;20941;-62
2021/11/07 00:03:42;;;;;;;24.72;12.93;;;;;;;6.12;63.25;101134.32;1764556;79;21024;-62
2021/11/07 00:06:25;;;;;;;24.32;13.22;;;;;;;6.13;63.24;101145.31;1773660;79;21877;-63
2021/11/07 00:08:51;;;;;;;24.23;12.53;;;;;;;6.12;63.18;101137.83;1805723;78;21013;-62
2021/11/07 00:11:26;;;;;;;24.07;13.40;;;;;;;6.13;63.11;101138.66;1794557;78;20991;-63
2021/11/07 00:13:42;;;;;;;28.75;13.68;;;;;;;6.12;63.12;101136.98;1778403;79;21459;-64
2021/11/07 00:16:14;;;;;;;22.48;12.75;;;;;;;6.12;63.07;101138.31;1806834;77;21646;-62
2021/11/07 00:18:42;;;;;;;23.85;11.95;;;;;;;6.11;63.00;101137.97;1818621;77;21146;-63
2021/11/07 00:21:14;;;;;;;20.88;12.07;;;;;;;6.09;62.95;101136.81;1823051;77;21006;-64
2021/11/07 00:26:19;;;;;;;24.75;11.70;;;;;;;6.00;62.97;101133.84;1826096;77;21027;-63
2021/11/07 00:28:36;;;;;;;22.05;11.35;;;;;;;5.97;63.02;101140.84;1817711;77;20999;-63
2021/11/07 00:31:20;;;;;;;19.95;11.50;;;;;;;5.94;63.07;101133.16;1818864;77;21139;-62
2021/11/07 00:33:52;;;;;;;21.42;11.57;;;;;;;5.91;63.15;101140.16;1819778;77;21537;-63
2021/11/07 00:36:15;;;;;;;24.72;12.47;;;;;;;5.90;63.25;101136.68;1819402;77;21001;-62
2021/11/07 00:41:40;;;;;;;20.95;11.10;;;;;;;5.87;63.33;101137.50;1779684;79;21519;-62
2021/11/07 00:44:07;;;;;;;20.15;11.22;;;;;;;5.87;63.46;101138.83;1799353;77;21103;-63
2021/11/07 00:46:51;;;;;;;19.00;10.88;;;;;;;5.86;63.54;101134.49;1795555;77;20948;-64
2021/11/07 00:50:23;;;;;;;18.87;10.68;;;;;;;5.89;63.54;101136.81;1802466;77;20900;-62
2021/11/07 00:52:17;;;;;;;16.50;9.28;;;;;;;5.89;63.44;101128.35;1777439;77;21878;-62
2021/11/07 00:57:16;;;;;;;15.60;9.60;;;;;;;5.90;63.34;101127.36;1818540;77;21805;-62
2021/11/07 00:59:37;;;;;;;17.77;9.88;;;;;;;5.90;63.37;101123.85;1810718;77;20868;-63
2021/11/07 01:02:21;;;;;;;16.15;9.35;;;;;;;5.89;63.37;101118.19;1818523;77;21038;-62
2021/11/07 01:04:50;;;;;;;18.02;9.63;;;;;;;5.88;63.35;101116.55;1814759;77;21042;-63
2021/11/07 01:07:17;;;;;;;16.45;10.05;;;;;;;5.86;63.36;101111.87;1818095;77;21402;-63
2021/11/07 01:09:45;;;;;;;16.97;9.98;;;;;;;5.84;63.37;101112.05;1815901;77;21149;-65
2021/11/07 01:12:11;;;;;;;23.07;10.32;;;;;;;5.82;63.39;101113.23;1817636;77;20955;-63
2021/11/07 01:14:40;;;;;;;22.45;10.70;;;;;;;5.82;63.42;101110.58;1820178;76;20943;-62
2021/11/07 01:17:07;;;;;;;17.90;10.40;;;;;;;5.80;63.48;101109.41;1816026;77;21473;-61
2021/11/07 01:19:34;;;;;;;15.30;9.53;;;;;;;5.78;63.51;101106.89;1820054;77;20995;-62
2021/11/07 01:22:03;;;;;;;16.45;10.68;;;;;;;5.77;63.54;101110.58;1814363;77;21321;-62
2021/11/07 01:24:36;;;;;;;23.30;10.32;;;;;;;5.78;63.52;101108.22;1806093;77;20971;-63
2021/11/07 01:27:13;;;;;;;22.30;10.72;;;;;;;5.78;63.42;101108.73;1799660;77;21019;-63
2021/11/07 01:29:40;;;;;;;18.02;10.03;;;;;;;5.76;63.44;101102.77;1815959;77;20888;-63
2021/11/07 01:32:04;;;;;;;17.25;10.10;;;;;;;5.72;63.41;101099.59;1801687;77;20998;-63
2021/11/07 01:37:13;;;;;;;18.60;10.35;;;;;;;5.68;63.77;101096.92;1789852;79;21468;-61
2021/11/07 01:39:44;;;;;;;18.52;9.95;;;;;;;5.67;63.83;101085.97;1785679;79;21488;-62
2021/11/07 01:44:53;;;;;;;15.03;9.23;;;;;;;5.71;63.94;101085.13;1800160;78;20908;-62
2021/11/07 01:47:17;;;;;;;20.43;10.25;;;;;;;5.70;63.95;101080.31;1796759;78;21201;-62
2021/11/07 01:49:46;;;;;;;18.82;9.73;;;;;;;5.72;63.90;101076.16;1800510;78;20967;-62
2021/11/07 01:52:13;;;;;;;17.50;10.43;;;;;;;5.72;63.92;101084.14;1794765;78;21006;-62
2021/11/07 01:54:49;;;;;;;21.27;10.47;;;;;;;5.72;63.93;101086.28;1802961;78;20976;-63
2021/11/07 01:57:17;;;;;;;17.65;10.25;;;;;;;5.73;63.89;101083.97;1793251;78;20967;-63
2021/11/07 01:59:46;;;;;;;27.77;10.20;;;;;;;5.74;63.89;101082.97;1796980;78;21153;-62
2021/11/07 02:02:13;;;;;;;17.12;10.08;;;;;;;5.77;63.82;101076.47;1796641;78;21060;-62
2021/11/07 02:04:41;;;;;;;18.75;9.58;;;;;;;5.78;63.83;101074.14;1783180;79;20908;-62
2021/11/07 02:07:08;;;;;;;21.80;10.72;;;;;;;5.79;63.81;101075.30;1784899;79;20932;-62
2021/11/07 02:09:36;;;;;;;17.90;9.20;;;;;;;5.78;63.76;101069.64;1780897;79;20885;-62
2021/11/07 02:12:04;;;;;;;18.25;9.60;;;;;;;5.78;63.72;101072.81;1784751;79;21152;-62
2021/11/07 02:14:32;;;;;;;14.03;8.80;;;;;;;5.77;63.74;101070.66;1781311;79;21065;-64
2021/11/07 02:16:59;;;;;;;16.52;9.55;;;;;;;5.76;63.70;101072.16;1782155;79;21117;-62
2021/11/07 02:19:28;;;;;;;21.48;10.55;;;;;;;5.75;63.71;101071.31;1780940;79;20947;-63
2021/11/07 02:21:55;;;;;;;17.70;10.43;;;;;;;5.74;63.70;101067.49;1780839;79;20931;-62
2021/11/07 02:24:21;;;;;;;15.78;10.00;;;;;;;5.72;63.64;101066.84;1783065;79;21105;-62
2021/11/07 02:26:55;;;;;;;21.02;10.95;;;;;;;5.68;63.49;101071.66;1781809;79;21093;-62
2021/11/07 02:29:22;;;;;;;21.07;11.40;;;;;;;5.58;63.55;101070.52;1781888;79;21019;-63
2021/11/07 02:31:50;;;;;;;22.02;10.75;;;;;;;5.50;63.61;101066.53;1784477;79;21018;-63
2021/11/07 02:34:17;;;;;;;16.60;9.03;;;;;;;5.44;63.76;101066.69;1780493;79;20979;-62
2021/11/07 02:36:45;;;;;;;19.12;10.10;;;;;;;5.39;63.82;101065.05;1773038;79;21160;-64
2021/11/07 02:39:16;;;;;;;14.53;9.28;;;;;;;5.37;63.96;101060.89;1773209;79;20932;-63
2021/11/07 02:41:43;;;;;;;21.17;10.75;;;;;;;5.37;63.96;101069.69;1775179;79;20963;-62
2021/11/07 02:44:10;;;;;;;19.67;9.98;;;;;;;5.37;63.84;101071.02;1773947;79;20977;-64
2021/11/07 02:46:37;;;;;;;17.80;9.88;;;;;;;5.33;63.78;101075.50;1774365;79;20997;-62
2021/11/07 02:49:04;;;;;;;22.25;9.60;;;;;;;5.29;63.84;101071.55;1771282;79;21807;-63
2021/11/07 02:51:35;;;;;;;18.23;10.48;;;;;;;5.25;63.94;101070.52;1773726;79;20916;-63
2021/11/07 02:54:07;;;;;;;22.93;10.68;;;;;;;5.23;63.99;101078.35;1760777;79;20989;-61
2021/11/07 02:56:33;;;;;;;21.42;10.15;;;;;;;5.20;64.17;101072.86;1765161;79;21544;-63
2021/11/07 02:59:01;;;;;;;20.23;10.95;;;;;;;5.17;64.19;101079.84;1779200;79;20889;-65
2021/11/07 03:01:28;;;;;;;19.75;11.28;;;;;;;5.15;64.14;101083.65;1813540;77;21102;-62
2021/11/07 03:04:07;;;;;;;23.02;12.00;;;;;;;5.08;64.22;101083.49;1793828;79;21595;-62
2021/11/07 03:06:31;;;;;;;21.48;11.25;;;;;;;5.03;64.34;101073.84;1786566;79;21386;-62
2021/11/07 03:08:58;;;;;;;20.68;11.38;;;;;;;4.98;64.54;101082.30;1810063;77;21008;-62
2021/11/07 03:11:25;;;;;;;20.80;11.83;;;;;;;4.95;64.78;101085.77;1810310;77;20905;-63
2021/11/07 03:13:58;;;;;;;19.90;10.93;;;;;;;4.95;64.97;101083.11;1812168;77;20952;-62
2021/11/07 03:16:22;;;;;;;19.82;11.25;;;;;;;4.94;65.14;101080.14;1803546;77;21066;-62
2021/11/07 03:18:48;;;;;;;20.68;11.60;;;;;;;4.96;65.10;101079.47;1809381;77;21494;-63
2021/11/07 03:21:16;;;;;;;23.02;12.07;;;;;;;4.97;65.05;101078.48;1810174;77;20892;-63
2021/11/07 03:23:52;;;;;;;18.65;11.20;;;;;;;4.97;65.03;101077.98;1812400;77;20982;-62
2021/11/07 03:26:23;;;;;;;19.45;10.78;;;;;;;4.97;65.03;101075.83;1805093;77;21135;-62
2021/11/07 03:28:55;;;;;;;18.37;10.88;;;;;;;4.97;65.12;101078.48;1811203;77;21481;-62
2021/11/07 03:33:53;;;;;;;20.05;11.12;;;;;;;4.98;65.18;101074.33;1815884;77;22099;-61
2021/11/07 03:36:20;;;;;;;18.02;10.38;;;;;;;5.00;65.21;101072.84;1820003;77;20959;-62
2021/11/07 03:38:51;;;;;;;20.77;11.60;;;;;;;5.02;65.16;101074.82;1782249;79;21061;-61
2021/11/07 03:41:18;;;;;;;21.62;11.05;;;;;;;5.04;65.14;101072.84;1788033;79;20915;-61
2021/11/07 03:43:46;;;;;;;20.97;11.80;;;;;;;5.05;65.17;101076.67;1781062;79;20923;-62
2021/11/07 03:46:15;;;;;;;21.12;10.53;;;;;;;5.07;65.08;101066.69;1794470;78;20970;-62
2021/11/07 03:48:42;;;;;;;18.10;10.78;;;;;;;5.06;65.16;101060.21;1800937;78;20928;-63
2021/11/07 03:51:12;;;;;;;18.15;10.80;;;;;;;5.10;65.23;101060.22;1798181;78;21185;-63
2021/11/07 03:53:38;;;;;;;19.67;11.50;;;;;;;5.14;65.18;101056.25;1802379;78;21517;-61
2021/11/07 03:56:05;;;;;;;23.98;11.85;;;;;;;5.18;65.09;101059.39;1785695;78;21415;-62
2021/11/07 03:58:31;;;;;;;19.17;11.35;;;;;;;5.19;64.92;101059.22;1805431;78;21004;-64
2021/11/07 04:00:58;;;;;;;20.82;11.90;;;;;;;5.19;64.88;101052.58;1773179;79;20900;-62
2021/11/07 04:03:25;;;;;;;20.08;10.85;;;;;;;5.19;64.86;101051.76;1779154;79;21173;-62
2021/11/07 04:05:52;;;;;;;19.85;11.20;;;;;;;5.17;64.95;101051.92;1769528;79;21575;-62
2021/11/07 04:08:18;;;;;;;20.08;11.85;;;;;;;5.17;65.05;101054.58;1781096;79;20994;-63
2021/11/07 04:10:45;;;;;;;21.10;12.10;;;;;;;5.15;65.00;101063.20;1789770;79;20971;-62
2021/11/07 04:13:11;;;;;;;19.12;10.60;;;;;;;5.13;64.98;101064.39;1782913;79;21729;-61
2021/11/07 04:15:38;;;;;;;20.75;11.45;;;;;;;5.08;64.97;101060.90;1785951;79;21101;-62
2021/11/07 04:18:06;;;;;;;23.02;11.40;;;;;;;5.02;64.96;101054.89;1787304;79;20872;-62
2021/11/07 04:20:33;;;;;;;21.25;11.57;;;;;;;4.98;65.13;101049.59;1785324;79;20924;-62
2021/11/07 04:22:59;;;;;;;19.55;11.12;;;;;;;4.96;65.14;101052.89;1780155;79;20975;-63
2021/11/07 04:25:26;;;;;;;16.15;10.63;;;;;;;4.95;65.33;101042.78;1777129;79;20938;-63
2021/11/07 04:27:52;;;;;;;18.52;10.45;;;;;;;4.99;65.31;101051.23;1782453;79;21132;-63
2021/11/07 04:30:19;;;;;;;18.45;10.78;;;;;;;5.00;65.28;101048.92;1777461;79;21033;-61
2021/11/07 04:32:45;;;;;;;17.25;10.75;;;;;;;5.02;65.27;101045.59;1785619;79;20927;-63
2021/11/07 04:35:12;;;;;;;18.00;11.05;;;;;;;5.03;65.17;101048.08;1773763;79;21440;-62
2021/11/07 04:37:41;;;;;;;20.02;11.38;;;;;;;5.02;65.11;101039.80;1778102;79;21030;-62
2021/11/07 04:40:10;;;;;;;19.80;11.70;;;;;;;5.02;65.00;101041.13;1773137;79;21073;-62
2021/11/07 04:42:37;;;;;;;20.60;11.85;;;;;;;5.01;64.81;101045.28;1787039;79;26785;-63
2021/11/07 04:45:05;;;;;;;22.95;12.68;;;;;;;4.95;64.88;101052.08;1774796;79;21485;-61
2021/11/07 04:47:32;;;;;;;20.17;12.75;;;;;;;4.91;65.00;101049.41;1773259;79;21980;-62
2021/11/07 04:49:58;;;;;;;20.15;11.95;;;;;;;4.88;65.04;101053.22;1772687;79;20920;-63
2021/11/07 04:52:25;;;;;;;24.05;14.23;;;;;;;4.84;65.06;101055.86;1774583;79;21161;-63
2021/11/07 04:54:52;;;;;;;24.25;13.50;;;;;;;4.80;65.08;101055.88;1773434;79;20966;-64
2021/11/07 04:57:18;;;;;;;22.02;12.35;;;;;;;4.79;65.09;101053.38;1772819;79;21063;-62
2021/11/07 04:59:44;;;;;;;24.87;13.13;;;;;;;4.75;65.18;101058.17;1774117;79;21141;-63
2021/11/07 05:02:11;;;;;;;27.50;14.33;;;;;;;4.74;65.33;101057.83;1781740;79;20968;-63
2021/11/07 05:04:38;;;;;;;23.62;13.68;;;;;;;4.74;65.21;101054.70;1776097;79;21128;-62
2021/11/07 05:07:05;;;;;;;24.07;13.80;;;;;;;4.72;65.15;101059.83;1778791;79;20910;-64
2021/11/07 05:09:31;;;;;;;25.40;13.78;;;;;;;4.69;65.21;101059.66;1783109;79;20876;-64
2021/11/07 05:11:58;;;;;;;25.77;14.95;;;;;;;4.68;65.38;101057.16;1796629;79;21540;-62
2021/11/07 05:14:24;;;;;;;28.47;15.28;;;;;;;4.68;65.48;101060.67;1796698;79;21015;-62
2021/11/07 05:16:51;;;;;;;25.77;15.08;;;;;;;4.73;65.50;101062.33;1794795;79;21825;-64
2021/11/07 05:19:17;;;;;;;24.18;13.48;;;;;;;4.79;65.50;101063.50;1818219;77;20923;-63
2021/11/07 05:21:44;;;;;;;30.62;14.87;;;;;;;4.86;65.32;101058.38;1798721;79;20886;-62
2021/11/07 05:24:10;;;;;;;21.93;14.40;;;;;;;4.95;65.28;101045.44;1828391;77;20962;-62
2021/11/07 05:26:37;;;;;;;21.75;12.90;;;;;;;5.22;65.07;101041.61;1820386;77;20979;-63
2021/11/07 05:29:05;;;;;;;25.88;14.00;;;;;;;5.87;64.31;101042.52;1814657;78;21893;-62
2021/11/07 05:31:32;;;;;;;25.97;13.65;;;;;;;6.78;62.85;101048.30;1820058;77;21046;-64
2021/11/07 05:33:59;;;;;;;22.85;13.88;;;;;;;7.82;60.81;101053.61;1820615;77;21030;-63
2021/11/07 05:36:25;;;;;;;23.73;13.50;;;;;;;8.85;58.13;101059.86;1812787;77;20911;-63
2021/11/07 05:38:52;;;;;;;19.40;13.20;;;;;;;9.85;55.48;101045.62;1821780;77;21564;-63
2021/11/07 05:41:18;;;;;;;23.10;13.70;;;;;;;10.81;52.85;101046.19;1820765;77;21260;-64
2021/11/07 05:43:45;;;;;;;20.72;13.45;;;;;;;11.69;50.23;101040.64;1824842;77;20967;-63
2021/11/07 05:46:11;;;;;;;21.35;12.55;;;;;;;12.55;47.68;101048.13;1823596;77;20971;-62
2021/11/07 05:48:39;;;;;;;19.85;13.08;;;;;;;13.30;44.93;101052.81;1821018;77;21834;-63
2021/11/07 05:51:08;;;;;;;;;;;;;;;13.79;42.53;101050.33;1807102;79;21370;-63
2021/11/07 05:53:34;;;;;;;22.10;14.30;;;;;;;14.02;41.60;101056.95;1813609;77;21134;-63
2021/11/07 05:56:01;;;;;;;18.85;13.00;;;;;;;14.22;40.94;101062.10;1825287;77;21484;-63
2021/11/07 05:58:28;;;;;;;21.97;12.18;;;;;;;14.37;40.87;101071.19;1825280;77;21033;-64
2021/11/07 06:00:56;;;;;;;22.02;13.40;;;;;;;14.67;40.47;101064.48;1816979;78;20932;-63
2021/11/07 06:03:23;;;;;;;16.93;11.93;;;;;;;15.08;39.66;101063.39;1795305;79;20935;-62
2021/11/07 06:05:51;;;;;;;;;;;;;;;15.52;38.83;101057.70;1800806;79;20954;-63
2021/11/07 06:08:18;;;;;;;15.83;11.50;;;;;;;15.92;38.02;101064.59;1798541;79;20467;-64
2021/11/07 06:10:44;;;;;;;15.63;11.85;;;;;;;16.25;37.41;101063.65;1798566;79;20923;-64
2021/11/07 06:13:11;;;;;;;15.80;11.78;;;;;;;16.61;36.71;101057.61;1795113;79;21001;-63
2021/11/07 06:15:39;;;;;;;17.02;12.30;;;;;;;16.92;36.15;101059.02;1796394;79;21529;-63
2021/11/07 06:18:06;;;;;;;19.17;11.80;;;;;;;17.15;35.72;101061.29;1798551;79;21100;-62
2021/11/07 06:20:33;;;;;;;17.80;12.57;;;;;;;17.28;35.43;101060.96;1798872;79;20837;-62
2021/11/07 06:23:01;;;;;;;18.45;12.85;;;;;;;17.27;35.05;101067.98;1798281;79;21438;-62
2021/11/07 06:25:28;;;;;;;17.95;12.40;;;;;;;16.94;35.20;101062.83;1796880;79;20962;-62
2021/11/07 06:27:55;;;;;;;16.85;12.37;;;;;;;16.29;36.02;101062.92;1800305;79;20992;-63
2021/11/07 06:30:22;;;;;;;19.10;12.65;;;;;;;15.52;37.24;101067.17;1791302;79;21144;-63
2021/11/07 06:32:49;;;;;;;18.17;12.47;;;;;;;14.79;38.44;101075.86;1796582;79;20915;-63
2021/11/07 06:35:16;;;;;;;20.37;13.18;;;;;;;14.02;39.68;101077.17;1796270;79;21029;-63
2021/11/07 06:37:43;;;;;;;19.12;12.58;;;;;;;13.30;41.20;101077.59;1796609;79;21075;-63
2021/11/07 06:40:11;;;;;;;20.20;12.82;;;;;;;12.69;42.59;101077.14;1800423;79;21532;-63
2021/11/07 06:42:38;;;;;;;20.90;13.75;;;;;;;12.23;43.85;101074.11;1796719;79;21877;-62
2021/11/07 06:45:05;;;;;;;22.20;13.72;;;;;;;11.84;44.94;101075.32;1792540;79;21520;-63
2021/11/07 06:47:32;;;;;;;20.32;13.22;;;;;;;11.54;45.82;101080.30;1794737;79;20962;-64
2021/11/07 06:49:59;;;;;;;22.20;14.70;;;;;;;11.23;46.67;101070.99;1796546;78;20920;-63
2021/11/07 06:52:25;;;;;;;26.93;15.18;;;;;;;10.96;47.50;101072.30;1796568;79;21109;-63
2021/11/07 06:54:53;;;;;;;20.05;13.85;;;;;;;10.74;48.18;101081.55;1793910;79;21102;-63
2021/11/07 06:57:19;;;;;;;20.00;12.28;;;;;;;10.55;48.86;101081.27;1791680;79;21021;-62
2021/11/07 06:59:47;;;;;;;20.62;13.80;;;;;;;10.44;49.39;101088.03;1796429;79;20844;-63
2021/11/07 07:02:14;;;;;;;23.38;13.48;;;;;;;10.34;50.12;101077.67;1798633;79;21983;-64
2021/11/07 07:04:41;;;;;;;23.40;14.45;;;;;;;10.27;50.48;101082.14;1793689;79;21492;-63
2021/11/07 07:07:07;;;;;;;24.65;15.10;;;;;;;10.22;50.94;101084.59;1791103;79;21122;-63
2021/11/07 07:09:44;;;;;;;24.98;14.53;;;;;;;10.22;51.35;101079.73;1795974;79;20978;-65
2021/11/07 07:12:11;;;;;;;24.47;15.00;;;;;;;10.22;51.70;101075.71;1783799;79;21500;-64
2021/11/07 07:15:05;;;;;;;25.72;15.03;;;;;;;10.22;51.81;101076.56;1776801;79;20955;-64
2021/11/07 07:17:29;;;;;;;27.50;14.60;;;;;;;10.23;52.02;101063.98;1762786;79;21006;-64
2021/11/07 07:20:01;;;;;;;22.48;13.43;;;;;;;10.25;52.15;101061.95;1782165;79;21158;-66
2021/11/07 07:30:31;;;;;;;21.15;12.13;;;;;;;10.42;52.82;101047.70;1774863;79;20952;-64
2021/11/07 07:35:15;;;;;;;24.45;12.78;;;;;;;10.53;52.69;101031.05;1785560;79;20088;-64
2021/11/07 07:37:41;;;;;;;20.50;12.78;;;;;;;10.60;52.65;101029.22;1788211;79;20888;-65
2021/11/07 07:40:09;;;;;;;20.48;11.90;;;;;;;10.71;52.66;101031.81;1795059;79;20975;-65
2021/11/07 07:42:37;;;;;;;23.10;13.50;;;;;;;10.83;52.76;101040.09;1779325;79;21478;-63
2021/11/07 07:45:06;;;;;;;19.98;12.95;;;;;;;10.94;52.32;101035.97;1791177;79;21142;-64
2021/11/07 07:47:33;;;;;;;22.13;13.48;;;;;;;11.01;52.20;101024.73;1785647;79;20923;-65
2021/11/07 07:50:01;;;;;;;21.12;12.75;;;;;;;11.05;52.29;101015.25;1787662;79;20896;-64
2021/11/07 07:52:28;;;;;;;20.32;12.25;;;;;;;11.12;52.37;101013.41;1791334;79;20935;-63
2021/11/07 07:54:56;;;;;;;25.37;12.90;;;;;;;11.19;52.44;101005.37;1787284;79;20879;-63
2021/11/07 07:57:23;;;;;;;18.70;11.97;;;;;;;11.29;52.49;101017.86;1794558;79;21315;-64
2021/11/07 07:59:49;;;;;;;23.98;12.40;;;;;;;11.39;52.21;101012.89;1791239;79;21005;-64
2021/11/07 08:02:16;;;;;;;21.20;13.32;;;;;;;11.50;51.87;101023.51;1784192;79;20884;-63
2021/11/07 08:04:42;;;;;;;21.05;12.45;;;;;;;11.55;52.23;101012.14;1784374;79;20968;-66
2021/11/07 08:07:09;;;;;;;22.50;12.75;;;;;;;11.63;52.01;101007.91;1797709;78;21014;-63
2021/11/07 08:09:36;;;;;;;21.70;12.40;;;;;;;11.71;51.88;101004.98;1797821;79;21097;-63
2021/11/07 08:12:03;;;;;;;22.30;12.13;;;;;;;11.78;51.47;101009.01;1798193;79;20939;-64
2021/11/07 08:14:30;;;;;;;20.32;11.78;;;;;;;11.83;51.45;101003.00;1795778;79;21148;-64
2021/11/07 08:16:57;;;;;;;19.75;12.07;;;;;;;11.85;51.31;101003.10;1790990;79;21042;-64
2021/11/07 08:19:24;;;;;;;16.40;11.45;;;;;;;11.88;51.46;100998.65;1782246;79;21059;-65
2021/11/07 08:21:51;;;;;;;16.80;11.43;;;;;;;11.95;51.75;101009.92;1789105;79;21129;-64
2021/11/07 08:24:18;;;;;;;18.40;12.37;;;;;;;12.04;51.65;101009.98;1786426;79;21488;-65
2021/11/07 08:26:47;;;;;;;19.07;11.97;;;;;;;12.13;51.40;100999.82;1786651;79;20984;-65
2021/11/07 08:29:15;;;;;;;21.20;11.95;;;;;;;12.15;51.28;100998.58;1785583;79;20931;-64
2021/11/07 08:31:43;;;;;;;24.13;13.73;;;;;;;12.17;51.50;100996.49;1781795;79;20994;-67
2021/11/07 08:34:10;;;;;;;17.02;11.60;;;;;;;12.21;51.38;101000.41;1786584;79;21865;-64
2021/11/07 08:39:19;;;;;;;17.90;12.03;;;;;;;12.24;51.44;101001.32;1785486;79;20998;-63
2021/11/07 08:41:55;;;;;;;16.82;11.05;;;;;;;12.21;51.66;100991.00;1779297;79;20955;-64
2021/11/07 09:00:29;;;;;;;18.57;10.75;;;;;;;12.12;51.91;100954.66;1785420;79;21588;-64
2021/11/07 09:05:57;;;;;;;18.82;11.88;;;;;;;12.10;52.47;100955.37;1787866;79;20920;-66
2021/11/07 09:08:24;;;;;;;18.80;12.03;;;;;;;12.14;52.38;100946.39;1781487;79;21003;-64
2021/11/07 09:10:52;;;;;;;21.52;12.60;;;;;;;12.19;51.96;100951.92;1779992;79;21013;-64
2021/11/07 09:13:19;;;;;;;19.02;11.75;;;;;;;12.18;51.88;100944.92;1784406;79;21155;-64
2021/11/07 09:15:49;;;;;;;19.02;11.78;;;;;;;12.17;51.78;100946.77;1778793;79;21509;-63
2021/11/07 09:18:16;;;;;;;21.52;12.00;;;;;;;12.16;51.94;100950.52;1788451;79;20919;-64
2021/11/07 09:23:22;;;;;;;15.48;10.70;;;;;;;12.21;51.75;100939.93;1789417;79;21488;-64
2021/11/07 09:28:21;;;;;;;17.45;11.30;;;;;;;12.24;51.94;100919.87;1784764;79;21501;-63
2021/11/07 09:33:43;;;;;;;15.15;10.58;;;;;;;12.17;51.83;100913.70;1777633;79;20974;-63
2021/11/07 09:38:32;;;;;;;18.17;11.05;;;;;;;12.21;52.15;100893.42;1777949;79;21918;-64
2021/11/07 09:41:17;;;;;;;20.27;12.07;;;;;;;12.22;51.98;100889.67;1778250;79;21034;-65
2021/11/07 09:43:45;;;;;;;18.02;10.85;;;;;;;12.24;51.94;100888.95;1771355;79;21033;-63
2021/11/07 09:49:03;;;;;;;17.62;10.95;;;;;;;12.21;51.96;100881.33;1815758;77;20992;-64
2021/11/07 09:51:35;;;;;;;18.25;11.55;;;;;;;12.26;52.11;100876.11;1823255;77;21141;-65
2021/11/07 09:54:03;;;;;;;16.95;11.33;;;;;;;12.31;51.86;100878.14;1811834;77;20919;-63
2021/11/07 09:56:31;;;;;;;19.85;10.20;;;;;;;12.31;51.77;100875.45;1788408;78;20920;-65
2021/11/07 09:58:59;;;;;;;16.65;10.58;;;;;;;12.29;51.83;100876.20;1766984;79;38181;-64
2021/11/07 10:01:29;;;;;;;18.15;10.45;;;;;;;12.30;51.81;100873.30;1796216;78;21048;-65
2021/11/07 10:03:58;;;;;;;18.07;10.45;;;;;;;12.34;51.83;100878.55;1803954;78;21839;-63
2021/11/07 10:06:31;;;;;;;;;;;;;;;12.39;51.95;100881.92;1805572;77;20975;-63
2021/11/07 10:09:01;;;;;;;16.10;8.43;;;;;;;12.44;51.53;100876.73;1780307;79;20128;-64
2021/11/07 10:11:33;;;;;;;11.97;8.55;;;;;;;12.43;51.77;100862.45;1776349;77;20996;-65
2021/11/07 10:14:13;;;;;;;10.38;7.85;;;;;;;12.46;51.60;100861.72;1742011;81;21549;-63
2021/11/07 10:16:43;;;;;;;12.40;8.35;;;;;;;12.43;51.30;100861.10;1745619;80;21140;-64
2021/11/07 10:19:25;;;;;;;12.07;7.97;;;;;;;12.39;51.30;100850.47;1746119;80;20972;-65
2021/11/07 10:21:48;;;;;;;10.05;6.78;;;;;;;12.36;51.66;100847.41;1746498;80;21051;-64
2021/11/07 10:24:20;;;;;;;11.57;7.10;;;;;;;12.30;51.31;100838.88;1746520;80;20932;-63
2021/11/07 10:26:54;;;;;;;11.88;6.90;;;;;;;12.27;51.65;100830.72;1744002;81;21047;-64
2021/11/07 10:29:33;;;;;;;10.80;6.83;;;;;;;12.31;51.56;100831.09;1748382;80;21123;-64
2021/11/07 10:32:04;;;;;;;11.90;6.58;;;;;;;12.31;51.48;100834.63;1728740;81;20975;-64
2021/11/07 10:54:24;;;;;;;8.58;5.03;;;;;;;12.30;50.68;100768.98;1740446;81;20940;-64
2021/11/07 10:57:17;;;;;;;10.55;5.85;;;;;;;12.30;50.58;100769.80;1735285;81;21196;-64
2021/11/07 11:00:06;;;;;;;11.90;6.00;;;;;;;12.30;50.79;100764.95;1733545;82;20972;-64
2021/11/07 11:02:36;;;;;;;8.13;5.45;;;;;;;12.31;50.73;100761.20;1724094;82;21157;-65
2021/11/07 11:05:16;;;;;;;7.25;5.25;;;;;;;12.32;50.63;100762.33;1752186;81;20992;-65
2021/11/07 11:08:13;;;;;;;9.43;5.45;;;;;;;12.31;50.61;100764.73;1759072;81;20908;-64
2021/11/07 11:10:56;;;;;;;11.08;6.10;;;;;;;12.29;50.63;100756.58;1735544;81;21240;-64
2021/11/07 11:13:27;;;;;;;9.50;6.12;;;;;;;12.19;50.33;100749.84;1766316;79;21066;-63
2021/11/07 11:16:37;;;;;;;9.85;5.70;;;;;;;12.07;50.51;100751.58;1783515;79;21008;-64
2021/11/07 11:19:24;;;;;;;7.87;5.05;;;;;;;11.94;50.89;100751.17;1783394;79;21498;-66
2021/11/07 11:22:07;;;;;;;10.23;4.87;;;;;;;11.80;50.88;100749.58;1776481;79;21010;-65
2021/11/07 11:24:45;;;;;;;7.08;4.78;;;;;;;11.67;51.14;100739.74;1782612;79;21207;-67
2021/11/07 11:35:15;;;;;;;6.87;4.45;;;;;;;11.53;51.86;100724.24;1787225;79;20992;-64
2021/11/07 11:45:12;;;;;;;9.30;4.92;;;;;;;11.55;51.31;100731.55;1786260;79;20932;-64
2021/11/07 11:47:54;;;;;;;7.75;4.85;;;;;;;11.51;51.57;100732.52;1785483;79;21542;-64
2021/11/07 11:50:34;;;;;;;7.45;4.60;;;;;;;11.47;51.70;100733.14;1769554;80;21745;-64
2021/11/07 11:53:00;;;;;;;7.92;4.42;;;;;;;11.43;51.42;100732.75;1787790;78;20991;-64
2021/11/07 11:58:19;;;;;;;8.23;5.20;;;;;;;11.42;51.77;100716.86;1797783;79;21735;-64
2021/11/07 12:00:56;;;;;;;12.50;5.33;;;;;;;11.43;52.26;100715.30;1784133;79;20975;-65
2021/11/07 12:04:37;;;;;;;7.28;4.72;;;;;;;11.43;52.49;100715.30;1785980;79;21080;-64
2021/11/07 12:06:55;;;;;;;8.63;5.65;;;;;;;11.42;52.18;100708.81;1774204;79;20924;-65
2021/11/07 12:14:48;;;;;;;7.10;4.78;;;;;;;11.34;52.36;100702.66;1763319;80;21508;-65
2021/11/07 12:17:08;;;;;;;8.43;5.25;;;;;;;11.31;52.33;100711.14;1755620;80;21153;-65
2021/11/07 12:19:42;;;;;;;;;;;;;;;11.28;52.54;100707.55;1758732;80;21067;-65
2021/11/07 12:22:24;;;;;;;9.93;5.60;;;;;;;11.25;52.72;100704.45;1747441;80;20180;-64
2021/11/07 12:24:58;;;;;;;9.03;4.60;;;;;;;11.21;52.80;100706.22;1761995;80;21026;-64
2021/11/07 12:27:36;;;;;;;9.08;5.45;;;;;;;11.22;52.93;100698.48;1760637;80;21096;-64
2021/11/07 12:30:25;;;;;;;12.97;7.20;;;;;;;11.25;53.46;100687.84;1767282;80;21156;-64
2021/11/07 12:33:19;;;;;;;14.43;9.00;;;;;;;11.29;53.80;100685.05;1764475;80;21107;-64
2021/11/07 12:36:15;;;;;;;11.80;7.80;;;;;;;11.31;53.95;100677.59;1764454;80;21477;-64
2021/11/07 12:41:25;;;;;;;11.88;6.65;;;;;;;11.29;54.22;100690.41;1766292;80;21110;-64
2021/11/07 12:44:01;;;;;;;12.30;7.00;;;;;;;11.28;53.97;100682.05;1763536;80;21108;-65
2021/11/07 12:46:52;;;;;;;11.68;7.05;;;;;;;11.27;53.77;100683.61;1767293;80;20956;-64
2021/11/07 12:49:21;;;;;;;11.18;7.17;;;;;;;11.20;53.57;100683.12;1763868;80;20958;-64
2021/11/07 12:52:07;;;;;;;13.08;6.97;;;;;;;11.14;53.78;100677.78;1767238;80;21078;-64
2021/11/07 12:54:40;;;;;;;12.30;6.87;;;;;;;11.08;54.00;100666.04;1724842;80;20959;-64
2021/11/07 12:57:18;;;;;;;15.13;7.72;;;;;;;11.08;54.34;100671.94;1767929;80;21147;-65
2021/11/07 12:59:57;;;;;;;12.60;8.00;;;;;;;11.06;54.46;100672.15;1761657;80;21004;-64
2021/11/07 13:02:32;;;;;;;13.83;7.75;;;;;;;11.03;54.55;100665.34;1761664;80;20970;-63
2021/11/07 13:05:31;;;;;;;12.03;7.35;;;;;;;11.01;54.68;100662.56;1768254;80;21497;-65
2021/11/07 13:08:10;;;;;;;10.72;6.70;;;;;;;10.95;54.78;100654.84;1767808;80;20968;-64
2021/11/07 13:10:48;;;;;;;10.40;7.25;;;;;;;10.89;54.76;100650.34;1760432;80;21078;-65
2021/11/07 13:13:27;;;;;;;15.23;6.53;;;;;;;10.85;54.81;100652.64;1763518;80;20951;-64
2021/11/07 13:24:23;;;;;;;14.03;6.60;;;;;;;10.68;55.75;100640.21;1766067;80;21544;-64
2021/11/07 13:29:47;;;;;;;14.23;7.85;;;;;;;10.67;56.34;100617.14;1769612;80;21016;-64